Delingha, China
Current Conditions -  °F | °C
As of 11:00 AM on Sunday 25 Jan 2015 (Local Time) from ZLLL Reporting Station
Clear Clear  
Wind Chill: 30°   Ceiling: Unl
Heat Index: 34°   Visibility: 6mi
Dew Point:   Wind: 4mph
Humidity: 35%   Direction: 200°SSW
Pressure: 30.12"   Gusts: NA
Location:  37.37°N, 97.37°E
Report Text: ZLLL 250300Z 20002MPS 150V240 CAVOK 01/M13 Q1020 NOSIG
Loading
Personal Weather Stations






























Interactive Weather Map New forecast layout! Learn more

10-Day Weather Forecast

Advertisements
Track Severe Weather on mobile